Time;durP1;ratioP1;P1;durP2;ratioP2;P2;SDS_P1;SDS_P2;PMS_P1;PMS_P2;Temp;Humidity;BMP_temperature;BMP_pressure;BME280_temperature;BME280_humidity;BME280_pressure;Samples;Min_cycle;Max_cycle;Signal;HPM_P1;HPM_P2
2022/07/12 00:00:30;;;;;;;6.43;3.00;;;;;;;15.81;65.12;95163.91;4954828;29;20242;-83
2022/07/12 00:02:57;;;;;;;4.23;3.03;;;;;;;15.76;66.00;95166.41;4953971;29;20204;-83
2022/07/12 00:05:24;;;;;;;4.63;3.30;;;;;;;15.67;66.74;95154.75;4953533;29;21010;-83
2022/07/12 00:07:52;;;;;;;3.93;3.27;;;;;;;15.70;66.23;95162.91;4953238;29;20312;-85
2022/07/12 00:10:18;;;;;;;4.33;3.40;;;;;;;15.64;67.03;95166.47;4953961;29;20206;-83
2022/07/12 00:12:45;;;;;;;5.47;2.90;;;;;;;15.65;66.82;95160.22;4953596;29;20284;-82
2022/07/12 00:15:12;;;;;;;3.50;3.10;;;;;;;15.65;66.91;95168.09;4953027;29;20198;-83
2022/07/12 00:17:41;;;;;;;6.33;3.10;;;;;;;15.61;65.64;95161.72;4954438;29;20206;-93
2022/07/12 00:20:09;;;;;;;6.50;2.50;;;;;;;15.43;64.50;95154.06;4954964;29;20216;-86
2022/07/12 00:22:36;;;;;;;4.70;2.90;;;;;;;15.39;64.35;95158.16;4954216;29;20219;-86
2022/07/12 00:25:03;;;;;;;4.93;2.93;;;;;;;15.30;63.93;95164.81;4953870;29;20202;-86
2022/07/12 00:27:30;;;;;;;3.20;2.60;;;;;;;15.22;64.70;95165.97;4953459;29;20692;-86
2022/07/12 00:29:57;;;;;;;3.70;2.40;;;;;;;15.18;65.01;95164.06;4953644;29;20232;-86
2022/07/12 00:32:24;;;;;;;3.67;2.40;;;;;;;15.27;65.09;95162.66;4953686;29;20205;-88
2022/07/12 00:34:52;;;;;;;2.97;2.63;;;;;;;15.35;63.73;95162.28;4953675;29;20201;-88
2022/07/12 00:37:20;;;;;;;5.63;2.60;;;;;;;15.28;63.92;95159.00;4953022;29;20688;-88
2022/07/12 00:39:46;;;;;;;3.13;2.40;;;;;;;15.26;64.18;95161.06;4953219;29;20721;-86
2022/07/12 00:42:13;;;;;;;4.57;2.77;;;;;;;15.23;64.15;95151.88;4953263;29;20676;-87
2022/07/12 00:44:40;;;;;;;6.50;2.73;;;;;;;15.16;64.24;95138.09;4952670;29;20550;-89
2022/07/12 00:47:07;;;;;;;5.20;2.80;;;;;;;15.24;63.79;95148.19;4953583;29;20702;-88
2022/07/12 00:49:35;;;;;;;4.40;2.57;;;;;;;15.22;64.21;95142.41;4953506;29;20215;-88
2022/07/12 00:52:03;;;;;;;3.00;2.70;;;;;;;15.15;63.89;95138.34;4953368;29;20194;-88
2022/07/12 00:54:30;;;;;;;4.27;2.53;;;;;;;15.21;64.38;95147.88;4953243;29;20208;-85
2022/07/12 00:56:57;;;;;;;4.37;2.47;;;;;;;15.09;64.08;95137.44;4953543;29;20205;-86
2022/07/12 00:59:24;;;;;;;3.87;2.50;;;;;;;15.14;64.66;95152.47;4953090;29;20201;-85
2022/07/12 01:01:51;;;;;;;4.73;2.60;;;;;;;15.01;65.36;95137.81;4953376;28;20292;-85
2022/07/12 01:04:18;;;;;;;4.77;2.30;;;;;;;15.12;64.66;95151.91;4957538;29;20220;-85
2022/07/12 01:06:46;;;;;;;3.57;2.30;;;;;;;15.08;64.98;95156.81;4957013;29;20232;-85
2022/07/12 01:09:14;;;;;;;5.87;2.73;;;;;;;14.86;65.06;95126.28;4956979;29;20312;-85
2022/07/12 01:11:42;;;;;;;6.53;2.20;;;;;;;14.96;65.52;95142.97;4957327;29;20201;-86
2022/07/12 01:14:11;;;;;;;4.77;2.20;;;;;;;15.06;65.88;95152.84;4957111;29;20201;-87
2022/07/12 01:16:38;;;;;;;5.07;2.40;;;;;;;15.21;64.38;95150.50;4957755;29;20664;-87
2022/07/12 01:19:07;;;;;;;7.67;2.57;;;;;;;15.18;64.35;95150.97;4957984;29;20201;-86
2022/07/12 01:21:39;;;;;;;4.23;2.20;;;;;;;15.13;64.96;95146.44;4956971;29;20225;-86
2022/07/12 01:24:10;;;;;;;4.30;2.40;;;;;;;15.01;65.40;95150.09;4957206;29;20249;-87
2022/07/12 01:26:37;;;;;;;4.63;2.40;;;;;;;14.94;65.87;95149.47;4957163;29;20579;-86
2022/07/12 01:29:07;;;;;;;3.27;2.40;;;;;;;14.95;65.74;95140.59;4956792;29;20245;-86
2022/07/12 01:31:35;;;;;;;5.23;2.43;;;;;;;14.95;65.51;95141.34;4956613;29;20213;-84
2022/07/12 01:34:02;;;;;;;3.43;2.30;;;;;;;15.02;65.81;95141.22;4958451;29;20213;-84
2022/07/12 01:36:30;;;;;;;6.67;2.57;;;;;;;15.07;67.05;95149.19;4958905;29;20197;-84
2022/07/12 01:38:57;;;;;;;7.43;2.80;;;;;;;15.11;67.50;95140.63;4957741;29;20229;-84
2022/07/12 01:41:26;;;;;;;6.80;2.40;;;;;;;15.20;67.57;95141.06;4956503;29;20205;-84
2022/07/12 01:43:53;;;;;;;3.00;2.43;;;;;;;15.05;67.60;95122.44;4957034;29;20205;-83
2022/07/12 01:46:21;;;;;;;5.33;2.53;;;;;;;15.24;67.50;95147.41;4956491;29;20736;-83
2022/07/12 01:48:48;;;;;;;4.33;2.50;;;;;;;15.24;67.31;95150.03;4955643;29;20221;-84
2022/07/12 01:51:15;;;;;;;5.13;2.57;;;;;;;15.17;67.02;95144.16;4956271;29;20197;-83
2022/07/12 01:53:42;;;;;;;3.80;2.47;;;;;;;15.15;67.40;95135.75;4956561;29;20256;-83
2022/07/12 01:56:09;;;;;;;3.93;2.50;;;;;;;15.19;67.49;95145.50;4956384;29;20242;-82
2022/07/12 01:58:38;;;;;;;3.87;2.53;;;;;;;15.15;67.74;95146.22;4956624;29;20197;-83
2022/07/12 02:01:05;;;;;;;4.83;2.47;;;;;;;15.13;67.71;95140.38;4956936;29;20200;-86
2022/07/12 02:03:36;;;;;;;3.37;2.57;;;;;;;15.03;67.12;95133.16;4957121;29;20201;-86
2022/07/12 02:06:04;;;;;;;4.17;2.73;;;;;;;15.09;67.71;95147.13;4956834;29;20209;-86
2022/07/12 02:08:31;;;;;;;6.23;3.00;;;;;;;14.92;68.31;95128.75;4956331;29;20225;-89
2022/07/12 02:10:58;;;;;;;3.70;2.60;;;;;;;14.96;68.43;95148.19;4955835;29;20986;-86
2022/07/12 02:13:25;;;;;;;5.57;2.80;;;;;;;14.98;67.93;95147.97;4956096;28;20205;-84
2022/07/12 02:15:53;;;;;;;4.23;2.70;;;;;;;14.94;67.98;95139.00;4955756;29;20252;-84
2022/07/12 02:18:20;;;;;;;5.60;2.80;;;;;;;14.91;68.95;95150.72;4955821;29;20198;-84
2022/07/12 02:20:47;;;;;;;5.67;3.33;;;;;;;14.93;68.96;95147.84;4955796;29;20197;-84
2022/07/12 02:23:14;;;;;;;4.97;3.10;;;;;;;14.86;68.85;95153.25;4956006;29;20212;-84
2022/07/12 02:25:41;;;;;;;5.43;3.23;;;;;;;14.82;69.13;95152.09;4955720;29;20208;-84
2022/07/12 02:28:08;;;;;;;5.47;3.40;;;;;;;14.84;68.77;95149.25;4955768;29;20308;-84
2022/07/12 02:30:35;;;;;;;6.47;3.27;;;;;;;14.75;69.03;95159.28;4955894;29;20193;-83
2022/07/12 02:33:03;;;;;;;7.97;4.07;;;;;;;14.74;69.46;95155.91;4955920;29;20204;-83
2022/07/12 02:35:30;;;;;;;5.80;3.30;;;;;;;14.67;69.45;95138.72;4955609;29;20560;-84
2022/07/12 02:37:57;;;;;;;5.87;3.63;;;;;;;14.62;70.12;95143.84;4955460;29;20300;-84
2022/07/12 02:43:20;;;;;;;8.07;3.30;;;;;;;14.55;70.82;95148.41;4915352;29;20593;-84
2022/07/12 02:45:47;;;;;;;6.40;3.73;;;;;;;14.49;71.63;95150.13;4945586;29;20609;-81
2022/07/12 02:48:15;;;;;;;7.20;3.80;;;;;;;14.56;71.76;95152.63;4946969;29;20296;-83
2022/07/12 02:50:42;;;;;;;7.07;3.80;;;;;;;14.53;72.49;95148.63;4935845;29;20205;-82
2022/07/12 02:53:09;;;;;;;6.87;3.53;;;;;;;14.45;72.46;95145.59;4935157;29;20203;-84
2022/07/12 02:55:38;;;;;;;6.90;3.90;;;;;;;14.48;73.62;95159.00;4935040;29;20206;-84
2022/07/12 02:58:06;;;;;;;8.20;3.70;;;;;;;14.46;73.40;95161.03;4935863;29;20206;-85
2022/07/12 03:00:33;;;;;;;7.57;4.23;;;;;;;14.45;73.38;95162.06;4936039;29;20210;-85
2022/07/12 03:03:00;;;;;;;9.03;4.30;;;;;;;14.40;72.99;95167.16;4935890;29;20206;-86
2022/07/12 03:05:28;;;;;;;8.07;4.17;;;;;;;14.38;73.54;95171.84;4936056;29;20229;-86
2022/07/12 03:07:55;;;;;;;5.93;4.13;;;;;;;14.31;73.72;95160.69;4935905;29;20408;-85
2022/07/12 03:10:22;;;;;;;7.77;4.30;;;;;;;14.41;72.82;95173.19;4936199;29;20190;-85
2022/07/12 03:12:49;;;;;;;13.10;4.87;;;;;;;14.35;73.03;95168.88;4935809;29;20194;-84
2022/07/12 03:15:16;;;;;;;13.50;4.50;;;;;;;14.30;73.95;95161.69;4936152;29;20197;-84
2022/07/12 03:17:43;;;;;;;11.27;4.60;;;;;;;14.30;74.57;95168.75;4939582;29;20699;-83
2022/07/12 03:20:11;;;;;;;10.23;4.43;;;;;;;14.33;74.77;95179.59;4954154;29;20660;-83
2022/07/12 03:22:39;;;;;;;9.17;4.23;;;;;;;14.29;73.99;95175.00;4954166;29;20284;-83
2022/07/12 03:25:08;;;;;;;8.23;4.73;;;;;;;14.23;73.85;95182.72;4953953;28;20209;-83
2022/07/12 03:27:35;;;;;;;9.33;4.23;;;;;;;14.15;74.51;95184.88;4953577;29;20202;-83
2022/07/12 03:30:02;;;;;;;6.20;4.03;;;;;;;14.16;74.84;95182.06;4954518;29;20228;-83
2022/07/12 03:32:29;;;;;;;8.73;4.40;;;;;;;14.15;74.58;95175.22;4954602;29;20727;-82
2022/07/12 03:34:56;;;;;;;6.57;4.40;;;;;;;14.10;74.65;95182.97;4954850;29;20225;-83
2022/07/12 03:37:23;;;;;;;8.43;5.33;;;;;;;14.12;75.15;95186.13;4954189;29;20688;-82
2022/07/12 03:39:53;;;;;;;11.03;4.83;;;;;;;14.12;75.74;95180.09;4955025;29;20656;-81
2022/07/12 03:42:20;;;;;;;8.40;4.60;;;;;;;14.13;74.97;95186.94;4955445;29;20217;-84
2022/07/12 03:44:47;;;;;;;8.10;4.77;;;;;;;14.13;74.93;95190.34;4955208;29;20197;-76
2022/07/12 03:47:14;;;;;;;9.33;5.30;;;;;;;14.18;75.25;95190.47;4952916;29;20200;-76
2022/07/12 03:49:41;;;;;;;9.67;4.63;;;;;;;14.16;75.36;95187.28;4952953;29;20392;-73
2022/07/12 03:52:08;;;;;;;8.43;4.53;;;;;;;14.26;74.84;95191.16;4952743;29;20198;-73
2022/07/12 03:54:35;;;;;;;9.10;4.77;;;;;;;14.30;74.43;95189.66;4936677;29;20201;-73
2022/07/12 03:57:16;;;;;;;8.93;4.80;;;;;;;14.29;73.77;95196.72;4953079;29;20210;-73
2022/07/12 03:59:43;;;;;;;11.87;4.93;;;;;;;14.21;73.10;95190.00;4953071;29;20182;-73
2022/07/12 04:02:10;;;;;;;6.97;4.33;;;;;;;14.28;73.09;95202.97;4953347;29;20326;-72
2022/07/12 04:04:37;;;;;;;11.37;5.03;;;;;;;14.29;72.71;95199.31;4953098;29;20197;-72
2022/07/12 04:07:05;;;;;;;15.70;4.80;;;;;;;14.23;73.14;95198.41;4952665;29;20201;-73
2022/07/12 04:09:32;;;;;;;7.43;4.63;;;;;;;14.05;73.78;95201.13;4952177;29;20236;-73
2022/07/12 04:11:59;;;;;;;8.30;4.53;;;;;;;14.08;74.23;95198.06;4952658;29;20201;-73
2022/07/12 04:14:28;;;;;;;9.40;4.30;;;;;;;14.15;74.38;95205.78;4952734;29;20225;-74
2022/07/12 04:16:55;;;;;;;9.77;4.97;;;;;;;14.19;73.78;95206.94;4952540;29;20264;-73
2022/07/12 04:19:23;;;;;;;8.50;4.80;;;;;;;14.18;74.17;95219.22;4952443;29;20549;-73
2022/07/12 04:21:50;;;;;;;9.53;5.43;;;;;;;14.26;73.93;95217.31;4951245;29;20209;-74
2022/07/12 04:24:17;;;;;;;12.63;5.47;;;;;;;14.11;74.60;95215.13;4952220;29;20205;-73
2022/07/12 04:26:44;;;;;;;11.27;5.50;;;;;;;14.16;74.40;95221.28;4952609;29;20193;-73
2022/07/12 04:29:11;;;;;;;10.17;5.50;;;;;;;14.02;74.42;95222.50;4952164;29;20217;-75
2022/07/12 04:31:39;;;;;;;9.87;5.27;;;;;;;14.06;75.20;95221.00;4952344;29;20197;-73
2022/07/12 04:34:06;;;;;;;15.67;5.17;;;;;;;14.03;75.10;95216.22;4952435;29;20260;-73
2022/07/12 04:36:34;;;;;;;10.30;4.97;;;;;;;14.10;75.19;95226.59;4952123;28;20202;-73
2022/07/12 04:39:00;;;;;;;9.67;4.90;;;;;;;14.13;74.50;95220.91;4951567;29;20720;-73
2022/07/12 04:41:27;;;;;;;9.27;5.23;;;;;;;14.14;75.11;95231.13;4952143;29;20206;-73
2022/07/12 04:43:54;;;;;;;10.67;5.20;;;;;;;14.19;74.63;95231.28;4952302;29;20197;-73
2022/07/12 04:46:21;;;;;;;14.27;5.13;;;;;;;14.23;75.04;95216.72;4952412;29;20228;-73
2022/07/12 04:48:49;;;;;;;10.23;5.60;;;;;;;14.30;74.60;95224.47;4951982;29;20639;-73
2022/07/12 04:51:17;;;;;;;12.90;5.30;;;;;;;14.32;74.46;95232.06;4951873;29;20206;-73
2022/07/12 04:53:44;;;;;;;8.33;5.30;;;;;;;14.24;74.98;95230.59;4951132;29;20232;-73
2022/07/12 04:56:11;;;;;;;12.30;5.20;;;;;;;14.25;75.58;95234.00;4951480;29;20201;-73
2022/07/12 04:58:38;;;;;;;8.10;5.23;;;;;;;14.25;75.17;95232.19;4951669;29;20189;-75
2022/07/12 05:01:05;;;;;;;14.63;5.50;;;;;;;14.31;75.76;95235.72;4951393;29;20201;-75
2022/07/12 05:03:31;;;;;;;9.93;5.43;;;;;;;14.31;75.82;95227.88;4951754;29;20574;-75
2022/07/12 05:06:00;;;;;;;13.63;5.57;;;;;;;14.35;76.09;95231.66;4951886;29;20660;-74
2022/07/12 05:08:27;;;;;;;12.53;6.93;;;;;;;14.37;76.38;95229.63;4951115;29;20205;-74
2022/07/12 05:10:53;;;;;;;14.03;5.97;;;;;;;14.41;76.11;95231.53;4952311;28;20197;-78
2022/07/12 05:13:20;;;;;;;12.93;6.27;;;;;;;14.43;76.31;95233.94;4949638;29;20198;-77
2022/07/12 05:15:47;;;;;;;12.50;5.70;;;;;;;14.44;76.81;95230.28;4950247;29;20212;-77
2022/07/12 05:18:16;;;;;;;16.50;6.60;;;;;;;14.42;76.56;95235.75;4952145;29;20211;-77
2022/07/12 05:20:43;;;;;;;10.77;5.80;;;;;;;14.40;77.09;95223.94;4951526;29;20296;-77
2022/07/12 05:23:11;;;;;;;10.90;5.90;;;;;;;14.49;77.83;95231.19;4950883;29;20288;-77
2022/07/12 05:25:38;;;;;;;11.77;6.07;;;;;;;14.57;77.01;95230.06;4951919;29;20205;-77
2022/07/12 05:28:05;;;;;;;10.50;5.43;;;;;;;14.65;76.06;95235.75;4951997;29;20210;-77
2022/07/12 05:30:33;;;;;;;10.63;5.90;;;;;;;14.72;76.85;95233.00;4951899;29;20224;-76
2022/07/12 05:33:00;;;;;;;11.60;5.90;;;;;;;14.72;76.68;95231.19;4951293;29;20605;-76
2022/07/12 05:35:27;;;;;;;8.80;5.70;;;;;;;14.81;77.26;95230.84;4951335;29;20206;-76
2022/07/12 05:37:54;;;;;;;11.07;5.83;;;;;;;14.83;77.47;95227.00;4951185;29;20245;-76
2022/07/12 05:40:22;;;;;;;15.10;5.60;;;;;;;14.83;77.44;95223.56;4951706;29;20292;-76
2022/07/12 05:42:51;;;;;;;13.83;5.90;;;;;;;14.92;76.98;95230.81;4949736;29;20541;-76
2022/07/12 05:45:17;;;;;;;11.03;5.40;;;;;;;14.96;76.49;95229.34;4949641;29;20236;-76
2022/07/12 05:47:45;;;;;;;12.07;5.33;;;;;;;14.98;76.09;95216.81;4951222;29;20206;-82
2022/07/12 05:50:12;;;;;;;9.70;5.77;;;;;;;15.06;76.42;95220.91;4954572;28;20225;-83
2022/07/12 05:55:38;;;;;;;8.37;4.23;;;;;;;15.25;73.50;95222.31;4955370;29;20683;-77
2022/07/12 05:58:05;;;;;;;9.80;4.17;;;;;;;15.36;73.34;95221.50;4956198;29;20190;-77
2022/07/12 06:00:33;;;;;;;10.87;3.80;;;;;;;15.45;73.22;95219.28;4955915;29;20201;-76
2022/07/12 06:03:11;;;;;;;11.33;4.20;;;;;;;15.51;73.21;95221.81;4955820;29;20279;-77
2022/07/12 06:05:39;;;;;;;10.17;3.80;;;;;;;15.56;71.86;95218.47;4956435;29;20209;-76
2022/07/12 06:08:06;;;;;;;6.30;3.67;;;;;;;15.69;71.99;95219.00;4954551;29;20220;-74
2022/07/12 06:10:34;;;;;;;4.20;3.10;;;;;;;15.76;70.22;95216.22;4955151;29;20224;-74
2022/07/12 06:13:01;;;;;;;5.43;3.73;;;;;;;15.83;70.37;95212.44;4955177;29;20202;-74
2022/07/12 06:15:29;;;;;;;9.17;3.40;;;;;;;15.85;69.73;95210.38;4955268;29;20193;-74
2022/07/12 06:17:56;;;;;;;7.30;3.30;;;;;;;15.96;70.22;95213.19;4954814;29;20236;-74
2022/07/12 06:20:23;;;;;;;9.07;3.03;;;;;;;16.09;68.93;95216.28;4954738;29;20201;-74
2022/07/12 06:22:50;;;;;;;9.27;3.50;;;;;;;16.16;69.14;95209.03;4954722;29;20201;-77
2022/07/12 06:25:17;;;;;;;5.27;3.17;;;;;;;16.23;68.27;95217.53;4955117;29;20231;-77
2022/07/12 06:27:47;;;;;;;5.90;3.20;;;;;;;16.16;67.70;95219.50;4954626;29;20208;-78
2022/07/12 06:30:16;;;;;;;5.70;3.37;;;;;;;16.26;68.53;95216.28;4954845;29;20665;-76
2022/07/12 06:32:44;;;;;;;7.73;4.30;;;;;;;16.37;69.36;95212.75;4954972;29;20203;-76
2022/07/12 06:35:11;;;;;;;7.73;3.63;;;;;;;16.48;68.77;95220.53;4954643;29;20190;-76
2022/07/12 06:37:37;;;;;;;8.13;3.77;;;;;;;16.66;67.29;95216.09;4954354;29;20237;-76
2022/07/12 06:40:06;;;;;;;4.97;3.20;;;;;;;16.66;67.36;95221.34;4954312;29;20209;-76
2022/07/12 06:42:33;;;;;;;9.90;3.80;;;;;;;16.71;67.07;95216.97;4955069;29;20204;-77
2022/07/12 06:45:01;;;;;;;6.63;3.30;;;;;;;16.70;66.77;95212.78;4954917;29;20197;-77
2022/07/12 06:47:29;;;;;;;4.90;3.13;;;;;;;16.71;65.63;95203.84;4953823;29;20201;-77
2022/07/12 06:49:56;;;;;;;6.03;3.33;;;;;;;16.67;67.00;95205.38;4954327;29;20218;-77
2022/07/12 06:52:23;;;;;;;9.20;3.70;;;;;;;16.76;66.80;95201.31;4954622;29;20212;-77
2022/07/12 06:54:50;;;;;;;5.57;2.90;;;;;;;16.82;65.96;95210.84;4953676;29;20208;-77
2022/07/12 06:57:17;;;;;;;4.93;2.60;;;;;;;16.95;64.87;95210.47;4954552;29;20232;-77
2022/07/12 06:59:44;;;;;;;5.37;2.50;;;;;;;16.97;63.04;95200.50;4954297;28;20198;-76
2022/07/12 07:02:12;;;;;;;4.63;2.43;;;;;;;17.07;63.01;95201.66;4954037;29;20211;-76
2022/07/12 07:04:39;;;;;;;6.27;2.30;;;;;;;17.15;62.72;95204.66;4954215;29;20217;-75
2022/07/12 07:07:06;;;;;;;10.40;2.97;;;;;;;17.21;63.12;95208.94;4953686;29;20197;-76
2022/07/12 07:09:33;;;;;;;7.37;2.90;;;;;;;17.29;61.50;95210.34;4953766;29;20221;-76
2022/07/12 07:12:00;;;;;;;3.83;2.30;;;;;;;17.39;60.54;95207.84;4953800;29;20288;-76
2022/07/12 07:14:28;;;;;;;5.03;2.30;;;;;;;17.40;59.71;95198.91;4953912;29;20202;-76
2022/07/12 07:16:55;;;;;;;2.30;1.90;;;;;;;17.52;59.99;95204.81;4956225;28;20201;-75
2022/07/12 07:19:24;;;;;;;5.37;2.43;;;;;;;17.60;59.41;95203.63;4962744;28;20664;-75
2022/07/12 07:21:51;;;;;;;4.70;2.57;;;;;;;17.72;58.02;95202.41;4961605;28;20194;-75
2022/07/12 07:24:18;;;;;;;6.07;2.30;;;;;;;17.78;57.07;95201.44;4961998;28;20213;-74
2022/07/12 07:26:45;;;;;;;3.57;1.90;;;;;;;17.75;55.74;95212.44;4961440;28;20280;-74
2022/07/12 07:31:57;;;;;;;6.50;2.10;;;;;;;17.94;55.91;95215.53;4963671;28;20192;-74
2022/07/12 07:34:26;;;;;;;3.93;2.13;;;;;;;17.96;55.96;95202.91;4961325;28;20201;-74
2022/07/12 07:36:54;;;;;;;5.10;2.00;;;;;;;18.09;55.38;95205.91;4961985;28;20232;-74
2022/07/12 07:39:21;;;;;;;3.33;2.00;;;;;;;18.07;54.88;95205.38;4962135;28;20222;-75
2022/07/12 07:41:47;;;;;;;2.40;2.10;;;;;;;18.14;55.61;95199.91;4971232;28;20200;-75
2022/07/12 07:44:14;;;;;;;7.70;2.57;;;;;;;18.22;54.15;95202.06;4959046;28;20198;-76
2022/07/12 07:46:41;;;;;;;7.40;2.20;;;;;;;18.27;53.74;95202.09;4953204;29;20197;-75
2022/07/12 07:49:08;;;;;;;3.47;1.90;;;;;;;18.27;54.11;95207.38;4955293;28;20209;-74
2022/07/12 07:51:36;;;;;;;3.63;2.50;;;;;;;18.36;54.02;95208.50;4955856;28;20583;-75
2022/07/12 07:54:04;;;;;;;4.47;2.10;;;;;;;18.46;54.15;95200.69;4952665;29;20202;-75
2022/07/12 07:56:32;;;;;;;7.80;2.10;;;;;;;18.54;53.01;95209.97;4958502;28;20216;-74
2022/07/12 07:58:59;;;;;;;9.20;2.65;;;;;;;18.58;52.67;95206.59;4960778;28;20208;-73
2022/07/12 08:01:42;;;;;;;7.67;2.30;;;;;;;18.64;52.32;95197.66;4962479;28;20193;-73
2022/07/12 08:04:09;;;;;;;11.02;2.05;;;;;;;18.62;52.29;95202.38;4963540;28;20252;-75
2022/07/12 08:06:38;;;;;;;3.80;2.03;;;;;;;18.54;51.65;95210.78;4961556;28;20193;-74
2022/07/12 08:09:05;;;;;;;4.10;2.33;;;;;;;18.55;49.88;95195.75;4954220;28;20197;-77
2022/07/12 08:11:32;;;;;;;3.72;2.30;;;;;;;18.67;50.22;95199.00;4955937;28;20213;-76
2022/07/12 08:13:59;;;;;;;7.25;2.33;;;;;;;18.65;51.35;95195.81;4967588;28;20195;-75
2022/07/12 08:16:26;;;;;;;8.40;2.00;;;;;;;18.88;50.31;95190.16;4962430;28;20203;-75
2022/07/12 08:18:53;;;;;;;4.65;1.90;;;;;;;18.93;49.92;95189.41;4960050;28;20197;-76
2022/07/12 08:21:20;;;;;;;4.63;2.00;;;;;;;19.07;49.61;95188.69;4959779;28;20205;-76
2022/07/12 08:23:50;;;;;;;2.15;1.60;;;;;;;19.13;46.49;95181.59;4960731;28;20229;-77
2022/07/12 08:26:17;;;;;;;2.92;1.67;;;;;;;18.98;46.06;95178.88;4961238;28;20276;-76
2022/07/12 08:28:44;;;;;;;4.63;2.28;;;;;;;18.98;49.24;95184.94;4962403;28;20200;-77
2022/07/12 08:31:13;;;;;;;7.35;1.90;;;;;;;19.10;48.72;95184.72;4962911;28;20216;-76
2022/07/12 08:33:40;;;;;;;3.70;1.65;;;;;;;19.18;45.38;95177.13;4962330;28;20193;-76
2022/07/12 08:36:08;;;;;;;2.38;1.55;;;;;;;19.25;46.41;95174.22;4960043;28;20995;-77
2022/07/12 08:38:36;;;;;;;1.90;1.50;;;;;;;19.27;46.56;95188.75;4960932;28;20709;-77
2022/07/12 08:41:05;;;;;;;4.18;1.83;;;;;;;19.31;45.71;95186.38;4962327;28;20197;-77
2022/07/12 08:43:35;;;;;;;6.60;2.08;;;;;;;19.44;45.15;95170.13;4961826;28;20657;-77
2022/07/12 08:46:06;;;;;;;2.95;1.60;;;;;;;19.49;45.42;95174.59;4961015;28;20201;-77
2022/07/12 08:48:33;;;;;;;3.75;1.58;;;;;;;19.46;44.86;95169.84;4960425;28;20582;-77
2022/07/12 08:51:03;;;;;;;2.10;1.73;;;;;;;19.47;43.45;95166.16;4960013;28;20212;-76
2022/07/12 08:53:30;;;;;;;6.20;1.80;;;;;;;19.35;43.48;95160.28;4957453;28;20194;-77
2022/07/12 08:55:58;;;;;;;5.45;1.70;;;;;;;19.43;43.77;95165.88;4959895;28;20200;-74
2022/07/12 08:58:27;;;;;;;4.05;1.85;;;;;;;19.51;44.96;95165.38;4955667;28;20320;-76
2022/07/12 09:00:54;;;;;;;3.78;1.65;;;;;;;19.56;45.62;95161.97;4952039;29;20201;-75
2022/07/12 09:03:21;;;;;;;2.97;1.77;;;;;;;19.70;45.96;95155.13;4952127;29;20288;-75
2022/07/12 09:05:51;;;;;;;3.83;1.60;;;;;;;19.88;44.60;95154.63;4952917;29;20232;-75
2022/07/12 09:08:19;;;;;;;1.73;1.38;;;;;;;19.95;44.29;95159.63;4952123;29;20269;-76
2022/07/12 09:11:01;;;;;;;4.38;1.85;;;;;;;19.97;44.65;95149.63;4951653;29;20224;-76
2022/07/12 09:13:49;;;;;;;5.30;1.75;;;;;;;19.98;45.48;95159.09;4952159;29;20197;-76
2022/07/12 09:16:17;;;;;;;2.80;1.90;;;;;;;20.13;45.52;95162.53;4952132;29;20234;-76
2022/07/12 09:18:44;;;;;;;2.88;1.73;;;;;;;20.12;46.29;95153.03;4951490;29;20209;-76
2022/07/12 09:21:11;;;;;;;6.00;1.50;;;;;;;20.26;41.92;95159.38;4951591;29;20212;-76
2022/07/12 09:23:51;;;;;;;4.15;1.33;;;;;;;20.24;39.18;95164.09;4952910;28;20326;-84
2022/07/12 09:26:18;;;;;;;4.82;1.52;;;;;;;20.23;42.37;95156.47;4956920;29;20193;-84
2022/07/12 09:28:45;;;;;;;4.40;1.60;;;;;;;20.02;43.29;95158.31;4956321;29;20577;-84
2022/07/12 09:31:13;;;;;;;2.83;1.73;;;;;;;20.01;42.53;95154.09;4955777;29;20224;-84
2022/07/12 09:36:25;;;;;;;3.25;1.80;;;;;;;20.24;42.12;95147.47;4957110;29;20185;-84
2022/07/12 09:38:54;;;;;;;5.40;1.77;;;;;;;20.23;42.36;95149.31;4954319;29;20237;-76
2022/07/12 09:41:22;;;;;;;2.80;1.70;;;;;;;20.33;42.52;95144.06;4953981;29;20208;-76
2022/07/12 09:43:50;;;;;;;4.97;1.40;;;;;;;20.52;40.98;95148.81;4954844;29;20292;-76
2022/07/12 09:46:19;;;;;;;2.92;1.63;;;;;;;20.63;37.83;95153.78;4954570;29;20201;-76
2022/07/12 09:48:47;;;;;;;4.40;1.40;;;;;;;20.71;37.86;95160.38;4955033;29;20201;-76
2022/07/12 09:51:17;;;;;;;2.70;1.48;;;;;;;20.60;39.32;95140.31;4955139;29;20221;-76
2022/07/12 09:53:46;;;;;;;3.60;1.70;;;;;;;20.74;38.98;95144.78;4955319;29;20213;-76
2022/07/12 09:56:14;;;;;;;3.13;1.55;;;;;;;20.91;37.46;95158.47;4955859;29;20324;-76
2022/07/12 09:58:48;;;;;;;2.60;1.48;;;;;;;21.11;37.30;95151.53;4955178;29;20197;-76
2022/07/12 10:01:19;;;;;;;3.33;1.40;;;;;;;21.15;35.81;95150.75;4955571;29;20196;-77
2022/07/12 10:03:47;;;;;;;4.25;1.40;;;;;;;21.12;35.67;95151.28;4955948;29;20201;-76
2022/07/12 10:06:17;;;;;;;2.67;1.30;;;;;;;21.19;37.54;95150.97;4955028;29;20200;-76
2022/07/12 10:08:45;;;;;;;4.97;1.52;;;;;;;21.26;36.73;95140.91;4955052;29;20201;-76
2022/07/12 10:11:13;;;;;;;2.53;1.40;;;;;;;21.26;35.46;95132.97;4955305;29;20235;-76
2022/07/12 10:13:41;;;;;;;2.55;1.30;;;;;;;21.28;35.69;95152.78;4953878;29;20194;-76
2022/07/12 10:16:11;;;;;;;5.45;1.67;;;;;;;21.28;36.79;95144.06;4955001;29;20244;-76
2022/07/12 10:18:40;;;;;;;5.32;2.33;;;;;;;21.53;36.43;95149.19;4955081;29;20264;-76
2022/07/12 10:21:19;;;;;;;9.18;2.33;;;;;;;21.58;37.55;95140.47;4954389;29;20209;-76
2022/07/12 10:23:46;;;;;;;3.03;1.67;;;;;;;21.75;36.98;95149.59;4954744;29;20275;-72
2022/07/12 10:26:38;;;;;;;3.88;1.35;;;;;;;21.88;36.30;95129.69;4955385;29;20193;-75
2022/07/12 10:29:07;;;;;;;4.05;1.40;;;;;;;21.96;36.34;95137.06;4954362;29;21005;-76
2022/07/12 10:31:37;;;;;;;4.10;1.48;;;;;;;21.78;36.90;95135.81;4954595;29;20229;-75
2022/07/12 10:34:20;;;;;;;2.20;1.50;;;;;;;21.68;37.54;95143.03;4954842;29;20201;-75
2022/07/12 10:37:12;;;;;;;1.85;1.35;;;;;;;21.96;37.54;95135.16;4954099;28;20182;-75
2022/07/12 10:39:40;;;;;;;3.95;1.50;;;;;;;22.56;37.22;95131.19;4954175;29;20190;-75
2022/07/12 10:42:18;;;;;;;4.25;1.70;;;;;;;22.94;35.98;95140.06;4954420;29;20204;-75
2022/07/12 10:44:47;;;;;;;3.83;1.33;;;;;;;22.64;34.34;95132.47;4955051;29;20578;-76
2022/07/12 10:47:18;;;;;;;4.35;1.40;;;;;;;22.53;35.75;95133.63;4954521;29;20197;-76
2022/07/12 10:49:50;;;;;;;4.35;1.77;;;;;;;22.70;36.45;95143.81;4953936;29;20197;-76
2022/07/12 10:52:26;;;;;;;6.97;1.60;;;;;;;22.97;36.00;95125.47;4953558;29;20676;-76
2022/07/12 10:55:23;;;;;;;3.78;1.73;;;;;;;22.88;35.38;95125.31;4953844;29;20204;-75
2022/07/12 10:57:52;;;;;;;2.90;1.33;;;;;;;22.95;35.27;95133.69;4913348;29;20191;-76
2022/07/12 11:00:19;;;;;;;6.20;1.30;;;;;;;23.32;35.79;95125.00;4945018;29;20657;-76
2022/07/12 11:02:46;;;;;;;3.83;1.42;;;;;;;23.46;35.12;95128.56;4959140;28;20268;-76
2022/07/12 11:05:15;;;;;;;2.97;1.77;;;;;;;23.70;35.81;95139.91;4961525;28;20205;-75
2022/07/12 11:07:42;;;;;;;4.25;1.80;;;;;;;24.04;35.33;95144.19;4966194;28;20194;-75
2022/07/12 11:10:13;;;;;;;2.25;1.80;;;;;;;24.10;35.28;95138.50;4953799;28;20567;-76
2022/07/12 11:12:40;;;;;;;2.20;1.70;;;;;;;24.40;34.81;95133.78;4954222;29;20267;-76
2022/07/12 11:15:08;;;;;;;4.63;1.58;;;;;;;24.19;33.96;95128.81;4956901;28;20204;-76
2022/07/12 11:17:35;;;;;;;3.45;1.50;;;;;;;23.98;35.79;95134.72;4963510;28;20202;-77
2022/07/12 11:20:09;;;;;;;2.03;1.40;;;;;;;24.16;35.42;95140.00;4964479;28;20288;-78
2022/07/12 11:22:38;;;;;;;4.40;1.50;;;;;;;24.35;34.75;95153.28;4963600;28;20275;-78
2022/07/12 11:25:08;;;;;;;3.08;1.50;;;;;;;24.24;34.66;95135.91;4963700;28;20859;-74
2022/07/12 11:27:36;;;;;;;4.60;1.50;;;;;;;24.43;35.56;95136.66;4962377;28;20200;-75
2022/07/12 11:30:05;;;;;;;3.85;1.80;;;;;;;24.49;33.75;95137.34;4962144;28;20197;-76
2022/07/12 11:32:36;;;;;;;3.60;1.73;;;;;;;24.50;35.24;95138.94;4961229;28;20683;-75
2022/07/12 11:35:03;;;;;;;3.95;1.65;;;;;;;24.33;34.49;95123.53;4971503;28;20200;-76
2022/07/12 11:37:30;;;;;;;2.58;1.40;;;;;;;24.16;34.90;95129.38;4972231;28;20247;-75
2022/07/12 11:39:58;;;;;;;3.67;1.50;;;;;;;24.10;34.93;95121.78;4972499;28;20195;-75
2022/07/12 11:42:25;;;;;;;5.28;1.40;;;;;;;24.36;34.60;95114.97;4956617;28;20724;-74
2022/07/12 11:44:53;;;;;;;4.78;1.52;;;;;;;24.92;33.59;95127.25;4953412;29;20212;-74
2022/07/12 11:47:22;;;;;;;2.83;1.60;;;;;;;24.89;32.97;95119.88;4951745;28;20232;-74